Phlox, Wisconsin
Current Conditions -  °F | °C
As of 7:55 AM on Monday 24 Nov 2014 (Local Time) from KAIG Reporting Station
Overcast Overcast  
Wind Chill: 28°   Ceiling: 600
Heat Index: 35°   Visibility: 10mi
Dew Point: 35°   Wind: 9mph
Humidity: 100%   Direction: 320°NW
Pressure: 29.05"   Gusts: NA
Location:  45.05°N, 89.01°W
Report Text: KAIG 241355Z AUTO 32008KT 10SM OVC006 02/02 A2905 RMK AO2 T00160016
Loading
Personal Weather Stations






























Interactive Weather Map New forecast layout! Learn more

10-Day Weather Forecast

Advertisements
Track Severe Weather on mobile